Time;durP1;ratioP1;P1;durP2;ratioP2;P2;SDS_P1;SDS_P2;PMS_P1;PMS_P2;Temp;Humidity;BMP_temperature;BMP_pressure;BME280_temperature;BME280_humidity;BME280_pressure;Samples;Min_cycle;Max_cycle;Signal;HPM_P1;HPM_P2
2023/10/06 00:02:28;;;;;;;4.30;2.15;;;12.30;99.90;;;;;;2585994;54;20885;31
2023/10/06 00:05:11;;;;;;;5.53;2.20;;;12.30;99.90;;;;;;2604554;46;20027;31
2023/10/06 00:07:43;;;;;;;6.23;2.77;;;12.30;99.90;;;;;;2585991;54;20057;31
2023/10/06 00:10:20;;;;;;;3.97;2.53;;;12.30;99.90;;;;;;2585925;54;20245;31
2023/10/06 00:12:59;;;;;;;3.93;2.33;;;12.20;99.90;;;;;;2585768;54;20875;31
2023/10/06 00:15:38;;;;;;;6.50;2.65;;;12.20;99.90;;;;;;2585972;54;21906;31
2023/10/06 00:18:16;;;;;;;4.88;2.10;;;12.20;99.90;;;;;;2585764;54;20035;31
2023/10/06 00:20:56;;;;;;;5.07;2.22;;;12.20;99.90;;;;;;2586191;54;20881;31
2023/10/06 00:23:30;;;;;;;4.95;2.00;;;12.20;99.90;;;;;;2585631;54;20073;31
2023/10/06 00:26:08;;;;;;;3.72;2.25;;;12.10;99.90;;;;;;2586060;54;20026;31
2023/10/06 00:28:44;;;;;;;4.15;2.25;;;12.10;99.90;;;;;;2585856;54;20839;31
2023/10/06 00:31:19;;;;;;;5.38;2.22;;;12.10;99.90;;;;;;2585772;54;20780;31
2023/10/06 00:33:51;;;;;;;6.27;2.93;;;12.10;99.90;;;;;;2585843;54;20026;31
2023/10/06 00:36:29;;;;;;;5.05;2.25;;;12.10;99.90;;;;;;2585745;54;20335;31
2023/10/06 00:39:11;;;;;;;5.88;2.65;;;12.10;99.90;;;;;;2585677;54;20046;31
2023/10/06 00:41:47;;;;;;;3.92;2.53;;;12.10;99.90;;;;;;2585968;54;20819;31
2023/10/06 00:44:21;;;;;;;4.90;2.37;;;12.10;99.90;;;;;;2585807;54;20036;31
2023/10/06 00:46:58;;;;;;;4.38;2.28;;;12.10;99.90;;;;;;2604166;46;20023;31
2023/10/06 00:49:31;;;;;;;5.00;2.53;;;12.10;99.90;;;;;;2585691;54;20783;31
2023/10/06 00:52:06;;;;;;;4.93;2.50;;;12.10;99.90;;;;;;2585424;54;20041;31
2023/10/06 00:54:43;;;;;;;3.25;2.03;;;12.10;99.90;;;;;;2603946;46;20177;31
2023/10/06 00:57:19;;;;;;;6.25;2.80;;;12.10;99.90;;;;;;2585716;54;20034;31
2023/10/06 00:59:53;;;;;;;7.50;2.70;;;12.10;99.90;;;;;;2683515;39;21459;31
2023/10/06 01:02:27;;;;;;;4.40;2.30;;;12.10;99.90;;;;;;2585716;54;20790;31
2023/10/06 01:05:00;;;;;;;6.35;2.42;;;12.10;99.90;;;;;;2604312;47;20053;31
2023/10/06 01:07:39;;;;;;;7.87;2.90;;;12.10;99.90;;;;;;2604435;47;20031;31
2023/10/06 01:10:16;;;;;;;5.32;2.65;;;12.10;99.90;;;;;;2683091;39;21821;31
2023/10/06 01:12:53;;;;;;;3.67;2.35;;;12.10;99.90;;;;;;2586426;54;20060;31
2023/10/06 01:15:29;;;;;;;5.00;2.80;;;12.10;99.90;;;;;;2604492;46;20049;31
2023/10/06 01:18:19;;;;;;;6.65;3.10;;;12.10;99.90;;;;;;2586630;54;20049;31
2023/10/06 01:20:52;;;;;;;4.40;2.83;;;12.10;99.90;;;;;;2586338;54;20027;31
2023/10/06 01:23:33;;;;;;;6.85;3.42;;;12.10;99.90;;;;;;2586130;54;20038;31
2023/10/06 01:26:06;;;;;;;6.30;2.80;;;12.10;99.90;;;;;;2702935;39;21367;31
2023/10/06 01:28:38;;;;;;;5.90;3.30;;;12.10;99.90;;;;;;2586724;54;20031;31
2023/10/06 01:31:14;;;;;;;5.07;3.28;;;12.20;99.90;;;;;;2604749;46;20258;31
2023/10/06 01:33:49;;;;;;;6.15;3.17;;;12.20;99.90;;;;;;2586488;54;20919;31
2023/10/06 01:36:22;;;;;;;6.60;3.65;;;12.20;99.90;;;;;;2604557;46;20030;31
2023/10/06 01:39:03;;;;;;;8.13;3.60;;;12.20;99.90;;;;;;2586425;54;20034;31
2023/10/06 01:41:37;;;;;;;5.20;4.05;;;12.30;99.90;;;;;;2684285;39;20451;31
2023/10/06 01:44:12;;;;;;;5.33;3.60;;;12.30;99.90;;;;;;2604943;46;20037;31
2023/10/06 01:46:45;;;;;;;6.20;3.40;;;12.30;99.90;;;;;;2586349;54;20255;31
2023/10/06 01:49:17;;;;;;;5.68;3.67;;;12.30;99.90;;;;;;2586314;54;20057;31
2023/10/06 01:51:52;;;;;;;7.50;3.80;;;12.40;99.90;;;;;;2605077;46;20856;31
2023/10/06 01:54:34;;;;;;;7.70;4.50;;;12.30;99.90;;;;;;2586642;54;20037;31
2023/10/06 01:57:11;;;;;;;6.32;3.70;;;12.30;99.90;;;;;;2586379;54;20911;31
2023/10/06 01:59:44;;;;;;;8.73;4.15;;;12.40;99.90;;;;;;2586007;54;20026;31
2023/10/06 02:02:23;;;;;;;6.38;3.97;;;12.40;99.90;;;;;;2604835;46;20112;31
2023/10/06 02:04:59;;;;;;;6.15;3.40;;;12.40;99.90;;;;;;2586260;54;20038;31
2023/10/06 02:07:35;;;;;;;8.50;4.13;;;12.50;99.90;;;;;;2586367;54;20878;31
2023/10/06 02:10:15;;;;;;;;;;;12.50;99.90;;;;;;2604922;46;20026;31
2023/10/06 02:12:48;;;;;;;9.93;4.30;;;12.40;99.90;;;;;;2586469;54;19985;31
2023/10/06 02:15:20;;;;;;;9.23;3.97;;;12.40;99.90;;;;;;2586208;54;20030;31
2023/10/06 02:17:52;;;;;;;8.65;4.72;;;12.40;99.90;;;;;;2586220;54;20266;31
2023/10/06 02:20:32;;;;;;;11.05;5.07;;;12.40;99.90;;;;;;2586345;54;20031;31
2023/10/06 02:23:07;;;;;;;9.07;4.53;;;12.40;99.90;;;;;;2585936;54;20782;31
2023/10/06 02:25:42;;;;;;;6.75;4.40;;;12.40;99.90;;;;;;2586339;54;20037;31
2023/10/06 02:28:16;;;;;;;9.45;4.57;;;12.40;99.90;;;;;;2586282;54;20058;31
2023/10/06 02:30:51;;;;;;;9.83;4.97;;;12.40;99.90;;;;;;2586297;54;20057;31
2023/10/06 02:33:24;;;;;;;6.80;4.30;;;12.40;99.90;;;;;;2586063;54;20257;31
2023/10/06 02:36:03;;;;;;;9.10;5.07;;;12.50;99.90;;;;;;2604395;46;20033;31
2023/10/06 02:38:46;;;;;;;9.43;4.60;;;12.50;99.90;;;;;;2586349;54;20059;31
2023/10/06 02:41:25;;;;;;;9.75;4.85;;;12.50;99.90;;;;;;2586191;54;20060;31
2023/10/06 02:44:07;;;;;;;8.98;5.00;;;12.50;99.90;;;;;;2604772;46;20068;31
2023/10/06 02:46:39;;;;;;;10.30;5.75;;;12.60;99.90;;;;;;2586325;54;20057;31
2023/10/06 02:49:12;;;;;;;10.07;5.67;;;12.60;99.90;;;;;;2586325;54;20863;31
2023/10/06 02:51:50;;;;;;;7.85;4.70;;;12.50;99.90;;;;;;2604354;46;20108;31
2023/10/06 02:54:27;;;;;;;11.20;4.90;;;12.60;99.90;;;;;;2586083;54;20195;31
2023/10/06 02:57:05;;;;;;;9.45;5.32;;;12.60;99.90;;;;;;2604504;46;20954;31
2023/10/06 02:59:37;;;;;;;7.95;4.90;;;12.60;99.90;;;;;;2586137;54;20104;31
2023/10/06 03:02:06;;;;;;;11.00;5.95;;;12.60;99.90;;;;;;2604550;46;20840;31
2023/10/06 03:04:39;;;;;;;10.70;5.30;;;12.60;99.90;;;;;;2604700;46;20904;31
2023/10/06 03:07:14;;;;;;;7.38;4.38;;;12.60;99.90;;;;;;2604372;46;20883;31
2023/10/06 03:09:48;;;;;;;11.75;4.78;;;12.70;99.90;;;;;;2604576;46;20033;31
2023/10/06 03:12:26;;;;;;;8.60;5.00;;;12.60;99.90;;;;;;2586179;54;20847;31
2023/10/06 03:15:09;;;;;;;10.48;5.45;;;12.70;99.90;;;;;;2586409;54;20265;31
2023/10/06 03:17:42;;;;;;;10.27;5.57;;;12.70;99.90;;;;;;2586222;54;20835;31
2023/10/06 03:20:22;;;;;;;11.80;5.45;;;12.70;99.90;;;;;;2585936;54;20030;31
2023/10/06 03:22:58;;;;;;;9.40;5.65;;;12.60;99.90;;;;;;2586190;54;20030;31
2023/10/06 03:25:35;;;;;;;10.70;5.17;;;12.70;99.90;;;;;;2586081;54;20035;31
2023/10/06 03:28:12;;;;;;;10.00;5.82;;;12.70;99.90;;;;;;2586205;54;20042;31
2023/10/06 03:30:45;;;;;;;10.00;5.70;;;12.70;99.90;;;;;;2586249;54;20026;31
2023/10/06 03:33:18;;;;;;;11.38;5.63;;;12.70;99.90;;;;;;2586069;54;20039;31
2023/10/06 03:35:54;;;;;;;10.20;5.25;;;12.70;99.90;;;;;;2604413;46;20031;31
2023/10/06 03:38:43;;;;;;;13.75;5.32;;;12.70;99.90;;;;;;2586061;54;20749;31
2023/10/06 03:41:25;;;;;;;11.15;5.75;;;12.70;99.90;;;;;;2586072;54;20038;31
2023/10/06 03:44:04;;;;;;;14.60;6.70;;;12.80;99.90;;;;;;2683685;39;20370;31
2023/10/06 03:46:38;;;;;;;11.67;5.67;;;12.80;99.90;;;;;;2585885;54;20027;31
2023/10/06 03:49:13;;;;;;;9.05;5.30;;;;;;;;;;2604420;46;21083;31
2023/10/06 03:51:48;;;;;;;11.98;6.45;;;12.70;99.90;;;;;;2586212;54;20059;31
2023/10/06 03:54:20;;;;;;;8.93;5.70;;;12.80;99.90;;;;;;2585605;54;20029;31
2023/10/06 03:56:53;;;;;;;9.65;5.20;;;12.70;99.90;;;;;;2586184;54;20692;31
2023/10/06 03:59:28;;;;;;;12.70;5.70;;;12.70;99.90;;;;;;2600322;46;20872;31
2023/10/06 04:02:03;;;;;;;10.30;5.75;;;12.70;99.90;;;;;;2584967;54;19958;31
2023/10/06 04:04:39;;;;;;;8.27;4.65;;;12.70;99.90;;;;;;2586068;54;20096;31
2023/10/06 04:07:11;;;;;;;;;;;12.70;99.90;;;;;;2586369;54;20030;31
2023/10/06 04:09:49;;;;;;;9.90;5.70;;;12.70;99.90;;;;;;2585840;54;19941;31
2023/10/06 04:12:21;;;;;;;8.68;4.78;;;;;;;;;;2585974;54;20855;31
2023/10/06 04:14:56;;;;;;;9.23;6.00;;;12.80;99.90;;;;;;2586311;54;20877;31
2023/10/06 04:17:30;;;;;;;11.13;5.65;;;12.80;99.90;;;;;;2585781;54;20026;31
2023/10/06 04:20:06;;;;;;;8.70;5.55;;;12.70;99.90;;;;;;2604055;46;20755;31
2023/10/06 04:22:38;;;;;;;10.73;5.75;;;12.70;99.90;;;;;;2604190;46;20096;31
2023/10/06 04:25:16;;;;;;;7.85;4.70;;;12.70;99.90;;;;;;2604332;46;20081;31
2023/10/06 04:27:49;;;;;;;13.00;5.70;;;12.70;99.90;;;;;;2585756;54;20022;31
2023/10/06 04:30:25;;;;;;;13.10;6.65;;;12.70;99.90;;;;;;2604411;46;20866;31
2023/10/06 04:33:00;;;;;;;12.80;6.57;;;12.70;99.90;;;;;;2604193;46;20513;31
2023/10/06 04:35:33;;;;;;;12.52;6.22;;;12.70;99.90;;;;;;2585923;54;20895;31
2023/10/06 04:38:06;;;;;;;12.82;6.55;;;12.70;99.90;;;;;;2585402;54;20056;31
2023/10/06 04:40:40;;;;;;;11.70;6.67;;;12.80;99.90;;;;;;2603820;46;20030;31
2023/10/06 04:43:14;;;;;;;11.35;6.68;;;12.80;99.90;;;;;;2584943;54;20093;31
2023/10/06 04:45:50;;;;;;;9.63;7.15;;;12.80;99.90;;;;;;2585619;54;20026;31
2023/10/06 04:48:22;;;;;;;12.50;6.20;;;12.70;99.90;;;;;;2585734;54;20038;31
2023/10/06 04:50:56;;;;;;;10.90;6.18;;;12.70;99.90;;;;;;2585639;54;19934;31
2023/10/06 04:53:28;;;;;;;9.45;6.22;;;12.70;99.90;;;;;;2586015;54;20507;31
2023/10/06 04:56:03;;;;;;;10.60;6.60;;;12.70;99.90;;;;;;2585673;54;21596;31
2023/10/06 04:58:36;;;;;;;;;;;12.70;99.90;;;;;;2586365;54;21550;31
2023/10/06 05:01:13;;;;;;;10.45;6.10;;;12.70;99.90;;;;;;2585702;54;20004;31
2023/10/06 05:03:50;;;;;;;10.50;6.30;;;12.70;99.90;;;;;;2584999;54;20839;31
2023/10/06 05:06:26;;;;;;;;;;;12.70;99.90;;;;;;2604298;47;20024;31
2023/10/06 05:09:03;;;;;;;12.20;6.15;;;12.60;99.90;;;;;;2585399;54;20048;31
2023/10/06 05:11:38;;;;;;;12.65;6.35;;;12.60;99.90;;;;;;2585531;54;20561;31
2023/10/06 05:14:13;;;;;;;9.48;5.93;;;12.60;99.90;;;;;;2585717;54;20034;31
2023/10/06 05:16:53;;;;;;;11.77;5.85;;;12.60;99.90;;;;;;2585512;54;20050;31
2023/10/06 05:19:34;;;;;;;11.40;6.20;;;12.60;99.90;;;;;;2585850;54;20834;31
2023/10/06 05:22:10;;;;;;;8.98;5.63;;;12.50;99.90;;;;;;2585864;54;20647;31
2023/10/06 05:24:51;;;;;;;11.35;6.15;;;12.50;99.90;;;;;;2772904;31;20461;31
2023/10/06 05:27:28;;;;;;;12.87;6.40;;;12.50;99.90;;;;;;2584683;54;20157;31
2023/10/06 05:30:03;;;;;;;11.65;5.95;;;12.50;99.90;;;;;;2584835;54;21189;31
2023/10/06 05:32:44;;;;;;;11.52;6.22;;;12.50;99.90;;;;;;2585418;54;19934;31
2023/10/06 05:35:22;;;;;;;8.90;5.70;;;12.50;99.90;;;;;;2585541;54;20097;31
2023/10/06 05:38:03;;;;;;;9.90;5.70;;;12.50;99.90;;;;;;2584552;54;20621;31
2023/10/06 05:40:40;;;;;;;10.85;6.75;;;12.50;99.90;;;;;;2584885;54;20973;31
2023/10/06 05:43:18;;;;;;;9.30;5.78;;;12.50;99.90;;;;;;2584634;54;20032;31
2023/10/06 05:45:57;;;;;;;8.15;5.47;;;12.60;99.90;;;;;;2584693;54;20049;31
2023/10/06 05:48:41;;;;;;;12.25;5.53;;;12.60;99.90;;;;;;2601312;47;20855;31
2023/10/06 05:51:21;;;;;;;9.73;6.13;;;12.70;99.90;;;;;;2585384;54;20053;31
2023/10/06 05:54:02;;;;;;;11.37;5.77;;;12.70;99.90;;;;;;2585864;54;20940;31
2023/10/06 05:56:42;;;;;;;8.82;5.47;;;12.70;99.90;;;;;;2584595;54;20034;31
2023/10/06 05:59:18;;;;;;;10.70;5.90;;;12.80;99.90;;;;;;2586224;54;20882;31
2023/10/06 06:02:05;;;;;;;9.02;5.10;;;12.90;99.90;;;;;;2684307;39;22627;31
2023/10/06 06:04:41;;;;;;;9.53;5.40;;;13.10;99.90;;;;;;2586114;54;20031;31
2023/10/06 06:07:23;;;;;;;7.80;5.35;;;13.20;99.90;;;;;;2586454;54;20030;31
2023/10/06 06:10:04;;;;;;;8.50;5.25;;;13.40;99.90;;;;;;2586673;54;20069;31
2023/10/06 06:12:39;;;;;;;9.03;5.03;;;13.90;99.90;;;;;;2586297;54;20049;31
2023/10/06 06:15:16;;;;;;;9.35;5.15;;;14.20;99.90;;;;;;2586354;54;20372;31
2023/10/06 06:17:50;;;;;;;8.83;5.33;;;14.30;99.90;;;;;;2586229;54;20061;31
2023/10/06 06:20:24;;;;;;;9.93;4.78;;;14.50;99.90;;;;;;2586245;54;20996;31
2023/10/06 06:23:08;;;;;;;11.95;4.88;;;14.70;99.90;;;;;;2586128;54;20125;31
2023/10/06 06:25:44;;;;;;;12.80;4.90;;;15.00;99.90;;;;;;2586322;54;20053;31
2023/10/06 06:28:23;;;;;;;10.50;4.30;;;15.30;99.90;;;;;;2586572;54;21081;31
2023/10/06 06:31:04;;;;;;;8.15;4.82;;;15.70;99.90;;;;;;2586462;54;20884;31
2023/10/06 06:33:42;;;;;;;7.13;4.53;;;16.30;99.90;;;;;;2586204;54;20050;31
2023/10/06 06:36:21;;;;;;;7.78;4.25;;;16.70;99.90;;;;;;2595204;46;20137;31
2023/10/06 06:39:02;;;;;;;6.88;3.85;;;17.10;99.90;;;;;;2589497;46;20026;31
2023/10/06 06:41:41;;;;;;;7.95;4.30;;;17.40;99.90;;;;;;2585499;54;20049;31
2023/10/06 06:44:30;;;;;;;6.20;3.50;;;17.80;99.90;;;;;;2604634;46;20884;31
2023/10/06 06:47:10;;;;;;;11.20;3.83;;;18.10;99.90;;;;;;2586249;54;20116;31
2023/10/06 06:49:48;;;;;;;8.65;4.30;;;18.30;99.90;;;;;;2598127;46;20841;31
2023/10/06 06:52:24;;;;;;;5.43;3.80;;;18.70;99.90;;;;;;2586075;54;20026;31
2023/10/06 06:55:12;;;;;;;6.93;3.58;;;18.80;99.90;;;;;;2586439;54;20747;31
2023/10/06 06:57:46;;;;;;;9.23;3.92;;;18.80;99.90;;;;;;2586280;54;20225;31
2023/10/06 07:00:26;;;;;;;6.73;3.90;;;19.00;99.90;;;;;;2586162;54;20768;31
2023/10/06 07:03:05;;;;;;;6.47;3.90;;;19.20;99.90;;;;;;2585554;54;20029;31
2023/10/06 07:05:39;;;;;;;8.05;4.25;;;19.10;99.90;;;;;;2585977;54;20034;31
2023/10/06 07:08:18;;;;;;;7.78;4.05;;;18.80;99.90;;;;;;2586021;54;20030;31
2023/10/06 07:10:59;;;;;;;5.80;3.30;;;18.40;99.90;;;;;;2604826;46;19934;31
2023/10/06 07:13:35;;;;;;;5.65;3.05;;;18.10;99.90;;;;;;2586371;54;20328;31
2023/10/06 07:16:16;;;;;;;9.02;2.95;;;17.90;99.90;;;;;;2604658;46;20940;31
2023/10/06 07:18:59;;;;;;;5.50;2.70;;;17.70;99.90;;;;;;2585859;54;20037;31
2023/10/06 07:21:34;;;;;;;5.53;2.50;;;17.70;99.90;;;;;;2585115;54;20181;31
2023/10/06 07:24:13;;;;;;;7.33;3.13;;;17.90;99.90;;;;;;2585906;54;21206;31
2023/10/06 07:26:50;;;;;;;6.40;2.20;;;18.00;99.90;;;;;;2604920;46;20745;31
2023/10/06 07:29:30;;;;;;;8.30;2.70;;;18.30;99.90;;;;;;2604013;46;20031;31
2023/10/06 07:32:15;;;;;;;7.13;2.35;;;18.70;99.90;;;;;;2586350;54;20026;31
2023/10/06 07:34:54;;;;;;;6.90;2.70;;;19.00;99.90;;;;;;2585553;46;20869;31
2023/10/06 07:37:36;;;;;;;5.70;2.30;;;19.50;99.90;;;;;;2604948;46;20056;31
2023/10/06 07:40:13;;;;;;;5.32;2.80;;;19.90;99.90;;;;;;2586424;54;20073;31
2023/10/06 07:42:55;;;;;;;6.50;2.63;;;20.00;99.90;;;;;;2585996;54;20042;31
2023/10/06 07:45:31;;;;;;;4.38;2.45;;;20.30;99.90;;;;;;2585860;54;20875;31
2023/10/06 07:48:09;;;;;;;6.45;2.55;;;20.50;99.90;;;;;;2585880;54;19935;31
2023/10/06 07:50:44;;;;;;;7.28;2.92;;;20.90;99.90;;;;;;2586002;54;20093;31
2023/10/06 07:53:20;;;;;;;9.38;2.72;;;21.20;99.90;;;;;;2683572;39;21486;31
2023/10/06 07:55:53;;;;;;;;;;;21.20;99.90;;;;;;2602735;46;21236;31
2023/10/06 07:58:27;;;;;;;4.43;2.60;;;21.40;99.90;;;;;;2586266;54;19935;31
2023/10/06 08:01:07;;;;;;;7.53;2.70;;;21.60;99.90;;;;;;2586212;54;20893;31
2023/10/06 08:03:45;;;;;;;6.75;2.65;;;21.60;99.90;;;;;;2586245;54;20038;31
2023/10/06 08:06:32;;;;;;;6.20;3.20;;;21.90;99.90;;;;;;2702031;39;21048;31
2023/10/06 08:09:10;;;;;;;6.13;2.88;;;22.00;99.90;;;;;;2586287;54;20935;31
2023/10/06 08:11:47;;;;;;;4.05;2.70;;;22.00;99.90;;;;;;2585984;54;20477;31
2023/10/06 08:14:28;;;;;;;4.75;2.00;;;21.90;99.90;;;;;;2604751;46;20930;31
2023/10/06 08:17:05;;;;;;;28.75;5.70;;;22.00;99.90;;;;;;2585933;54;20890;31
2023/10/06 08:19:41;;;;;;;7.47;2.67;;;22.00;99.90;;;;;;2604495;46;20850;31
2023/10/06 08:22:22;;;;;;;8.63;2.80;;;22.20;99.90;;;;;;2702659;39;20531;31
2023/10/06 08:24:58;;;;;;;4.97;2.22;;;22.10;99.90;;;;;;2586196;54;20031;31
2023/10/06 08:27:33;;;;;;;4.85;2.50;;;22.00;99.90;;;;;;2585983;54;20829;31
2023/10/06 08:30:16;;;;;;;5.75;2.75;;;22.10;99.90;;;;;;2598886;46;21147;31
2023/10/06 08:32:52;;;;;;;4.07;2.08;;;22.00;99.90;;;;;;2584978;54;20026;31
2023/10/06 08:35:32;;;;;;;6.30;2.23;;;22.00;99.90;;;;;;2585994;54;20725;31
2023/10/06 08:38:09;;;;;;;5.57;2.28;;;21.90;99.90;;;;;;2585213;54;20939;31
2023/10/06 08:40:44;;;;;;;3.92;2.03;;;21.80;99.90;;;;;;2585101;54;20533;31
2023/10/06 08:43:26;;;;;;;5.00;3.03;;;21.90;99.90;;;;;;2754564;31;21602;31
2023/10/06 08:46:04;;;;;;;4.95;2.38;;;21.80;99.90;;;;;;2585994;54;20030;31
2023/10/06 08:48:45;;;;;;;5.05;2.40;;;21.80;99.90;;;;;;2604539;46;20030;31
2023/10/06 08:51:20;;;;;;;4.20;2.47;;;21.90;99.90;;;;;;2604630;46;20058;31
2023/10/06 08:53:55;;;;;;;6.65;2.50;;;22.00;99.90;;;;;;2586057;54;20023;31
2023/10/06 08:56:34;;;;;;;4.20;2.40;;;22.30;99.90;;;;;;2604452;46;19941;31
2023/10/06 08:59:11;;;;;;;4.90;2.85;;;22.40;99.90;;;;;;2585209;54;20025;31
2023/10/06 09:01:52;;;;;;;7.43;2.53;;;22.60;99.90;;;;;;2586006;54;19935;31
2023/10/06 09:04:28;;;;;;;5.10;2.30;;;22.80;99.90;;;;;;2585849;54;21334;31
2023/10/06 09:07:05;;;;;;;;;;;23.00;99.90;;;;;;2586131;54;20030;31
2023/10/06 09:09:43;;;;;;;6.47;2.55;;;23.20;99.90;;;;;;2604179;47;19966;31
2023/10/06 09:12:31;;;;;;;4.63;2.37;;;23.30;99.90;;;;;;2754213;31;20519;31
2023/10/06 09:15:14;;;;;;;6.15;2.83;;;23.30;99.90;;;;;;2604256;47;20851;31
2023/10/06 09:17:50;;;;;;;3.83;2.10;;;23.30;99.90;;;;;;2585872;54;20033;31
2023/10/06 09:20:38;;;;;;;8.60;2.70;;;23.20;99.90;;;;;;2604451;47;20081;31
2023/10/06 09:23:36;;;;;;;4.75;2.10;;;22.80;99.90;;;;;;2585761;54;20046;31
2023/10/06 09:26:12;;;;;;;8.57;2.47;;;22.40;99.90;;;;;;2585797;54;20096;31
2023/10/06 09:28:53;;;;;;;5.80;2.20;;;22.50;99.90;;;;;;2585906;54;20030;31
2023/10/06 09:31:39;;;;;;;7.93;2.45;;;22.60;99.90;;;;;;2586165;54;20763;31
2023/10/06 09:34:26;;;;;;;9.45;2.30;;;22.70;99.90;;;;;;2590330;46;20018;31
2023/10/06 09:37:21;;;;;;;4.18;1.83;;;22.70;99.90;;;;;;2586799;54;20030;31
2023/10/06 09:40:19;;;;;;;3.75;1.70;;;22.70;99.90;;;;;;2586644;54;20584;31
2023/10/06 09:42:57;;;;;;;6.07;1.77;;;22.70;99.90;;;;;;2586616;54;20026;31
2023/10/06 09:45:33;;;;;;;6.28;2.30;;;22.70;99.90;;;;;;2586752;54;20027;31
2023/10/06 09:48:13;;;;;;;3.37;1.90;;;22.40;99.90;;;;;;2605149;46;20157;31
2023/10/06 09:50:50;;;;;;;6.15;1.95;;;22.30;99.90;;;;;;2586453;54;21087;31
2023/10/06 09:53:29;;;;;;;4.95;1.80;;;22.30;99.90;;;;;;2604892;46;20029;31
2023/10/06 09:56:11;;;;;;;3.45;1.67;;;22.20;99.90;;;;;;2684536;39;21458;31
2023/10/06 09:58:51;;;;;;;4.80;1.67;;;22.20;99.90;;;;;;2586671;54;20023;31
2023/10/06 10:01:28;;;;;;;6.90;1.50;;;22.20;99.90;;;;;;2684557;39;22563;31
2023/10/06 10:04:04;;;;;;;3.35;1.70;;;22.30;99.90;;;;;;2586467;54;20921;31
2023/10/06 10:06:43;;;;;;;3.88;1.70;;;22.50;99.90;;;;;;2585639;54;20151;31
2023/10/06 10:09:24;;;;;;;3.13;1.87;;;22.70;99.90;;;;;;2586796;54;20852;31
2023/10/06 10:12:05;;;;;;;2.85;1.63;;;22.90;99.90;;;;;;2605119;46;20148;31
2023/10/06 10:14:56;;;;;;;3.15;1.55;;;22.80;99.90;;;;;;2604984;46;20932;31
2023/10/06 10:17:36;;;;;;;3.60;1.60;;;22.80;99.90;;;;;;2604980;46;20066;31
2023/10/06 10:20:15;;;;;;;2.55;1.45;;;22.80;99.90;;;;;;2586666;54;20860;31
2023/10/06 10:25:47;;;;;;;4.90;1.60;;;22.80;99.90;;;;;;2586114;54;20030;31
2023/10/06 10:28:27;;;;;;;4.30;1.35;;;22.70;99.90;;;;;;2586642;54;20894;31
2023/10/06 10:31:16;;;;;;;2.70;1.35;;;22.80;99.90;;;;;;2586606;54;20026;31
2023/10/06 10:33:55;;;;;;;3.40;1.20;;;22.90;99.90;;;;;;2589659;46;20852;31
2023/10/06 10:36:47;;;;;;;2.17;1.10;;;23.00;99.90;;;;;;2586422;54;20934;31
2023/10/06 10:39:23;;;;;;;2.22;1.13;;;22.90;99.90;;;;;;2585521;54;20883;31
2023/10/06 10:42:05;;;;;;;2.30;1.00;;;22.80;99.90;;;;;;2586352;54;20032;31
2023/10/06 10:44:39;;;;;;;3.05;1.30;;;22.90;99.90;;;;;;2586117;54;20107;31
2023/10/06 10:47:20;;;;;;;3.10;0.80;;;22.80;99.90;;;;;;2586712;54;20026;31
2023/10/06 10:49:58;;;;;;;3.95;0.90;;;22.70;99.90;;;;;;2586694;54;20044;31
2023/10/06 10:52:39;;;;;;;2.45;1.20;;;22.50;99.90;;;;;;2586346;54;20052;31
2023/10/06 10:55:16;;;;;;;2.33;0.82;;;22.40;99.90;;;;;;2586492;54;20020;31
2023/10/06 10:57:53;;;;;;;5.75;1.10;;;22.20;99.90;;;;;;2586464;54;20864;31
2023/10/06 11:00:40;;;;;;;2.63;1.17;;;22.10;99.90;;;;;;2586358;54;20029;31
2023/10/06 11:03:16;;;;;;;3.27;1.00;;;21.90;99.90;;;;;;2586077;54;20026;31
2023/10/06 11:05:51;;;;;;;2.73;0.90;;;21.80;99.90;;;;;;2586496;54;20049;31
2023/10/06 11:08:43;;;;;;;2.92;1.13;;;21.70;99.90;;;;;;2586226;54;20827;31
2023/10/06 11:11:19;;;;;;;4.75;1.20;;;21.60;99.90;;;;;;2586444;54;20039;31
2023/10/06 11:14:06;;;;;;;2.55;0.80;;;21.60;99.90;;;;;;2604871;46;20894;31
2023/10/06 11:16:49;;;;;;;2.78;1.25;;;21.60;99.90;;;;;;2586512;54;20058;31
2023/10/06 11:19:26;;;;;;;3.20;1.23;;;21.50;99.90;;;;;;2586383;54;20038;31
2023/10/06 11:22:13;;;;;;;4.05;1.30;;;21.40;99.90;;;;;;2585668;54;20780;31
2023/10/06 11:24:57;;;;;;;3.77;1.23;;;21.40;99.90;;;;;;2586353;54;20744;31
2023/10/06 11:27:33;;;;;;;6.57;1.52;;;21.40;99.90;;;;;;2586192;54;20027;31
2023/10/06 11:30:17;;;;;;;3.65;1.05;;;21.40;99.90;;;;;;2586110;54;20847;31
2023/10/06 11:35:25;;;;;;;4.75;1.20;;;21.30;99.90;;;;;;2604656;46;20026;31
2023/10/06 11:38:00;;;;;;;2.55;1.60;;;21.20;99.90;;;;;;2586200;54;20110;31
2023/10/06 11:40:40;;;;;;;3.80;1.30;;;21.10;99.90;;;;;;2586476;54;20022;31
2023/10/06 11:43:17;;;;;;;5.22;1.63;;;21.10;99.90;;;;;;2586613;54;20028;31
2023/10/06 11:46:07;;;;;;;5.50;1.88;;;21.10;99.90;;;;;;2604545;46;20904;31
2023/10/06 11:48:43;;;;;;;3.22;1.23;;;21.10;99.90;;;;;;2585988;54;20137;31
2023/10/06 11:51:18;;;;;;;6.03;1.60;;;21.00;99.90;;;;;;2586059;54;20854;31
2023/10/06 11:53:55;;;;;;;7.63;2.20;;;20.80;99.90;;;;;;2586244;54;20948;31
2023/10/06 11:56:36;;;;;;;4.78;1.63;;;20.80;99.90;;;;;;2585692;54;20877;31
2023/10/06 11:59:13;;;;;;;6.40;1.52;;;20.80;99.90;;;;;;2585843;54;20833;31
2023/10/06 12:01:52;;;;;;;4.18;1.60;;;20.80;99.90;;;;;;2585161;54;20688;31
2023/10/06 12:04:30;;;;;;;2.50;1.50;;;20.90;99.90;;;;;;2586135;54;20852;31
2023/10/06 12:07:05;;;;;;;6.80;1.90;;;21.00;99.90;;;;;;2604570;46;20068;31
2023/10/06 12:09:38;;;;;;;2.83;1.10;;;21.00;99.90;;;;;;2586125;54;20243;31
2023/10/06 12:12:16;;;;;;;3.77;1.80;;;21.00;99.90;;;;;;2586136;54;20725;31
2023/10/06 12:14:55;;;;;;;4.00;1.75;;;21.10;99.90;;;;;;2604779;46;20038;31
2023/10/06 12:17:38;;;;;;;5.10;1.50;;;21.10;99.90;;;;;;2604662;46;20321;31
2023/10/06 12:20:23;;;;;;;6.35;1.30;;;21.10;99.90;;;;;;2586065;54;20058;31
2023/10/06 12:22:57;;;;;;;2.92;1.00;;;21.20;99.90;;;;;;2586183;54;20898;31
2023/10/06 12:25:36;;;;;;;4.72;1.40;;;21.30;99.90;;;;;;2585995;54;20816;31
2023/10/06 12:28:16;;;;;;;2.47;1.17;;;21.30;99.90;;;;;;2586090;54;20851;31
2023/10/06 12:30:53;;;;;;;2.25;1.30;;;21.30;99.90;;;;;;2604784;46;20026;31
2023/10/06 12:33:32;;;;;;;6.47;1.60;;;21.30;99.90;;;;;;2604446;46;20081;31
2023/10/06 12:36:12;;;;;;;5.03;1.35;;;21.30;99.90;;;;;;2585243;54;20301;31
2023/10/06 12:38:51;;;;;;;9.50;1.20;;;21.40;99.90;;;;;;2585088;54;20425;31
2023/10/06 12:41:41;;;;;;;2.13;1.20;;;21.40;99.90;;;;;;2604194;46;20770;31
2023/10/06 12:44:17;;;;;;;3.63;1.50;;;21.50;99.90;;;;;;2604311;46;20023;31
2023/10/06 12:46:55;;;;;;;3.08;1.25;;;21.60;99.90;;;;;;2586048;54;20593;31
2023/10/06 12:49:32;;;;;;;5.75;1.50;;;21.60;99.90;;;;;;2604557;46;21522;31
2023/10/06 12:52:09;;;;;;;2.60;1.50;;;21.60;99.90;;;;;;2604629;46;20076;31
2023/10/06 12:54:52;;;;;;;2.65;1.50;;;21.50;99.90;;;;;;2595567;46;20533;31
2023/10/06 12:57:28;;;;;;;5.90;1.90;;;21.40;99.90;;;;;;2584948;54;20029;31
2023/10/06 13:00:02;;;;;;;3.50;1.35;;;21.30;99.90;;;;;;2585985;54;20945;31
2023/10/06 13:02:41;;;;;;;5.37;1.60;;;21.20;99.90;;;;;;2604455;47;20833;31
2023/10/06 13:05:22;;;;;;;4.80;1.83;;;21.20;99.90;;;;;;2586121;54;20789;31
2023/10/06 13:08:01;;;;;;;4.27;2.00;;;21.30;99.90;;;;;;2586415;54;20089;31
2023/10/06 13:10:35;;;;;;;6.70;2.50;;;21.20;99.90;;;;;;2605306;46;20328;31
2023/10/06 13:13:23;;;;;;;9.10;3.67;;;21.10;99.90;;;;;;2586487;54;20887;31
2023/10/06 13:15:59;;;;;;;3.90;1.55;;;21.00;99.90;;;;;;2604851;46;21617;31
2023/10/06 13:18:36;;;;;;;4.90;1.80;;;20.90;99.90;;;;;;2605125;46;20831;31
2023/10/06 13:21:18;;;;;;;3.45;2.00;;;20.90;99.90;;;;;;2605462;46;20765;31
2023/10/06 13:23:57;;;;;;;5.07;2.40;;;20.90;99.90;;;;;;2605355;46;20732;31
2023/10/06 13:26:42;;;;;;;3.95;2.33;;;20.90;99.90;;;;;;2586583;54;20837;31
2023/10/06 13:29:26;;;;;;;3.80;1.80;;;20.90;99.90;;;;;;2586670;54;20823;31
2023/10/06 13:32:01;;;;;;;4.28;1.83;;;20.90;99.90;;;;;;2586541;54;20905;31
2023/10/06 13:34:34;;;;;;;3.72;1.85;;;20.90;99.90;;;;;;2586646;54;20030;31
2023/10/06 13:37:14;;;;;;;2.90;1.67;;;20.80;99.90;;;;;;2586414;54;20026;31
2023/10/06 13:39:49;;;;;;;4.05;1.70;;;20.80;99.90;;;;;;2605374;46;21562;31
2023/10/06 13:42:28;;;;;;;2.70;1.65;;;20.80;99.90;;;;;;2585872;54;21245;31
2023/10/06 13:45:14;;;;;;;5.07;1.73;;;20.80;99.90;;;;;;2585263;54;20951;31
2023/10/06 13:47:52;;;;;;;3.88;1.50;;;20.70;99.90;;;;;;2605211;46;20825;31
2023/10/06 13:50:36;;;;;;;4.13;2.07;;;20.70;99.90;;;;;;2586885;54;20032;31
2023/10/06 13:53:18;;;;;;;7.23;1.90;;;20.70;99.90;;;;;;2586627;54;20053;31
2023/10/06 13:55:58;;;;;;;4.25;1.55;;;20.60;99.90;;;;;;2605311;46;20833;31
2023/10/06 13:58:31;;;;;;;5.05;1.77;;;20.50;99.90;;;;;;2586257;54;20128;31
2023/10/06 14:01:09;;;;;;;4.28;1.70;;;20.50;99.90;;;;;;2604107;46;20952;31